Terminal Aerodrome Forecast
Issued by NWS Wilmington, OH

Current Version | Previous Version | Text Only | Print | Product List | Glossary Off
Versions: 1 2 3 4 5 6 7 8 9 10 11 12 13 14 15 16 17 18 19 20 21 22 23 24 25

000
FTUS41 KILN 280536
TAFDAY
TAF
KDAY 280536Z 2806/2906 06004KT P6SM BKN090
     FM281000 07003KT 4SM BR SCT250
     FM281300 07005KT P6SM FEW040 SCT250
     FM281800 08006KT P6SM BKN050
     FM290000 VRB04KT P6SM FEW040 SCT250=

USA.gov is the U.S. government's official web portal to all federal, state and local government web resources and services.